Date,TemperatureHighF,TemperatureAvgF,TemperatureLowF,DewpointHighF,DewpointAvgF,DewpointLowF,HumidityHigh,HumidityAvg,HumidityLow,PressureMaxIn,PressureMinIn,WindSpeedMaxMPH,WindSpeedAvgMPH,GustSpeedMaxMPH,PrecipitationSumIn
2013-10-1,79.1,64.3,53.4,57.3,53.8,49.3,94,71,44,29.88,29.77,2,0,6,0.00
2013-10-2,79.7,67.4,57.2,63.3,57.2,53.9,92,71,49,29.89,29.77,3,0,9,0.00
2013-10-3,77.0,64.7,55.2,56.3,51.7,45.1,84,64,41,29.99,29.89,3,0,4,0.00
2013-10-4,82.5,66.4,58.6,65.6,59.5,54.7,93,80,54,29.95,29.84,4,0,6,0.00
2013-10-5,74.8,63.9,59.5,63.5,59.4,56.9,96,86,66,29.99,29.90,3,0,5,0.02
2013-10-6,63.1,60.1,57.9,62.2,59.6,57.6,99,99,97,30.02,29.94,4,2,10,0.19
2013-10-7,70.8,63.9,53.4,69.1,62.4,50.6,99,95,84,29.94,29.63,11,2,18,0.38
2013-10-8,64.2,53.8,46.0,50.6,44.5,39.7,94,73,44,30.23,29.85,5,0,10,0.00
2013-10-9,62.4,51.3,44.2,46.2,43.2,40.0,89,74,54,30.29,30.19,5,1,11,0.00
2013-10-10,58.8,52.3,47.1,52.9,47.8,43.6,90,85,78,30.20,29.99,2,0,4,0.00
2013-10-11,65.8,59.2,52.5,57.6,52.8,46.4,91,80,66,30.00,29.92,5,0,8,0.00
2013-10-12,70.1,59.1,50.3,55.6,49.6,43.6,86,72,53,30.20,29.99,7,2,12,0.00
2013-10-13,63.6,54.6,48.0,50.4,47.9,45.1,94,79,58,30.27,30.19,8,1,11,0.00
2013-10-14,68.3,53.5,44.2,51.1,46.4,43.4,97,79,50,30.26,30.11,3,0,6,0.00
2013-10-15,70.5,57.8,49.6,56.3,47.9,38.3,94,72,43,30.15,30.01,4,1,10,0.00
2013-10-16,60.9,54.6,48.5,54.4,48.8,44.8,93,81,69,30.01,29.79,2,0,5,0.00
2013-10-17,75.5,62.8,56.4,60.3,56.6,53.6,95,82,52,29.79,29.56,4,1,9,0.02
2013-10-18,69.0,59.2,48.5,59.6,47.3,39.1,93,67,42,29.84,29.52,5,1,15,0.02
2013-10-19,63.6,54.0,44.2,51.2,42.5,37.9,93,67,42,29.86,29.61,5,1,11,0.06
2013-10-20,62.4,51.4,44.2,51.3,39.7,32.9,94,67,39,29.93,29.60,5,1,11,0.01
2013-10-21,65.8,53.0,42.4,44.3,38.2,33.4,80,60,33,30.00,29.85,5,1,11,0.00
2013-10-22,63.6,52.4,43.1,50.9,45.0,38.0,90,77,53,29.86,29.59,5,1,11,0.00
2013-10-23,51.8,43.5,37.2,37.8,34.2,30.4,88,71,45,29.69,29.47,3,0,5,0.00
2013-10-24,53.9,42.4,34.8,35.7,29.7,24.4,85,63,36,29.83,29.59,7,1,16,0.00
2013-10-25,49.8,41.2,33.6,33.7,29.1,25.8,79,63,45,30.07,29.83,5,0,11,0.00
2013-10-26,51.6,43.3,33.6,34.3,29.7,25.3,83,61,38,30.06,29.74,8,2,25,0.00
2013-10-27,55.9,46.7,40.2,35.5,31.1,26.8,73,56,35,29.97,29.69,7,1,15,0.00
2013-10-28,60.0,45.8,33.9,35.3,32.1,28.9,83,61,34,30.20,29.96,6,1,14,0.00
2013-10-29,49.4,41.2,37.0,31.1,27.5,24.3,73,58,44,30.29,30.20,2,0,6,0.00
2013-10-30,53.0,45.1,36.8,45.9,37.5,25.4,94,75,58,30.22,30.05,4,0,5,0.00
2013-10-31,60.6,52.9,42.6,57.1,51.0,41.8,98,93,86,30.10,29.67,7,1,15,0.13